createdAt,value
2018-11-02T00:00:58.036Z,83.59
2018-11-02T00:01:58.050Z,83.88
2018-11-02T00:02:58.007Z,85.02
2018-11-02T00:03:58.009Z,84.26
2018-11-02T00:04:58.001Z,83.31
2018-11-02T00:05:58.042Z,83.02
2018-11-02T00:06:57.997Z,83.78
2018-11-02T00:07:57.996Z,83.88
2018-11-02T00:08:57.996Z,83.02
2018-11-02T00:09:58.008Z,82.87
2018-11-02T00:10:58.020Z,82.64
2018-11-02T00:11:58.004Z,82.45
2018-11-02T00:12:58.018Z,82.40
2018-11-02T00:13:58.006Z,82.87
2018-11-02T00:14:58.009Z,81.68
2018-11-02T00:15:57.993Z,82.17
2018-11-02T00:16:57.992Z,81.92
2018-11-02T00:17:58.006Z,82.11
2018-11-02T00:18:58.057Z,81.63
2018-11-02T00:19:57.994Z,81.63
2018-11-02T00:20:58.011Z,81.59
2018-11-02T00:21:58.004Z,81.68
2018-11-02T00:22:58.022Z,82.49
2018-11-02T00:23:58.021Z,82.30
2018-11-02T00:24:58.008Z,82.11
2018-11-02T00:25:58.023Z,81.92
2018-11-02T00:26:57.999Z,82.11
2018-11-02T00:27:57.999Z,82.49
2018-11-02T00:28:58.003Z,82.11
2018-11-02T00:29:58.015Z,81.06
2018-11-02T00:30:58.026Z,82.78
2018-11-02T00:31:58.213Z,82.97
2018-11-02T00:32:58.005Z,82.87
2018-11-02T00:33:58.034Z,82.68
2018-11-02T00:34:58.011Z,82.68
2018-11-02T00:35:58.018Z,83.25
2018-11-02T00:36:58.008Z,82.73
2018-11-02T00:37:58.030Z,82.68
2018-11-02T00:38:58.014Z,82.97
2018-11-02T00:39:58.023Z,83.06
2018-11-02T00:40:58.017Z,82.87
2018-11-02T00:41:58.004Z,83.12
2018-11-02T00:42:58.012Z,82.87
2018-11-02T00:43:58.078Z,83.25
2018-11-02T00:44:58.011Z,83.83
2018-11-02T00:45:58.014Z,83.73
2018-11-02T00:46:58.016Z,83.92
2018-11-02T00:47:58.003Z,84.40
2018-11-02T00:48:58.002Z,84.40
2018-11-02T00:49:58.007Z,84.30
2018-11-02T00:50:58.039Z,83.92
2018-11-02T00:51:58.022Z,83.73
2018-11-02T00:52:58.023Z,84.74
2018-11-02T00:53:58.017Z,84.92
2018-11-02T00:54:58.022Z,85.50
2018-11-02T00:55:58.040Z,85.35
2018-11-02T00:56:58.019Z,84.69
2018-11-02T00:57:58.026Z,85.06
2018-11-02T00:58:58.022Z,85.73
2018-11-02T00:59:58.040Z,86.11
2018-11-02T01:00:58.029Z,86.21
2018-11-02T01:01:58.035Z,86.88
2018-11-02T01:02:58.026Z,86.88
2018-11-02T01:03:58.037Z,87.54
2018-11-02T01:04:58.028Z,87.07
2018-11-02T01:05:58.040Z,87.26
2018-11-02T01:06:58.058Z,86.98
2018-11-02T01:07:58.026Z,87.45
2018-11-02T01:08:58.057Z,86.78
2018-11-02T01:09:58.020Z,87.93
2018-11-02T01:10:58.019Z,88.59
2018-11-02T01:11:58.025Z,88.59
2018-11-02T01:12:58.018Z,88.12
2018-11-02T01:13:58.026Z,87.83
2018-11-02T01:14:58.027Z,87.35
2018-11-02T01:15:58.028Z,87.16
2018-11-02T01:16:58.026Z,87.35
2018-11-02T01:17:58.028Z,87.07
2018-11-02T01:18:58.044Z,88.02
2018-11-02T01:19:58.035Z,87.54
2018-11-02T01:20:58.046Z,87.07
2018-11-02T01:21:58.043Z,88.12
2018-11-02T01:22:58.049Z,87.83
2018-11-02T01:23:58.029Z,87.74
2018-11-02T01:24:58.039Z,87.83
2018-11-02T01:25:58.028Z,87.35
2018-11-02T01:26:58.042Z,87.83
2018-11-02T01:27:58.052Z,88.12
2018-11-02T01:28:58.037Z,87.74
2018-11-02T01:29:58.027Z,87.64
2018-11-02T01:30:58.054Z,87.35
2018-11-02T01:31:58.051Z,87.45
2018-11-02T01:32:58.028Z,87.35
2018-11-02T01:33:58.035Z,87.26
2018-11-02T01:34:58.038Z,86.49
2018-11-02T01:35:58.050Z,86.30
2018-11-02T01:36:58.054Z,86.36
2018-11-02T01:37:58.072Z,86.36
2018-11-02T01:38:58.062Z,86.55
2018-11-02T01:39:58.044Z,85.69
2018-11-02T01:40:58.026Z,85.60
2018-11-02T01:41:58.048Z,85.69
2018-11-02T01:42:58.049Z,85.60
2018-11-02T01:43:58.033Z,85.41
2018-11-02T01:44:58.044Z,84.92
2018-11-02T01:45:58.046Z,84.83
2018-11-02T01:46:58.034Z,83.59
2018-11-02T01:47:58.068Z,83.88
2018-11-02T01:48:58.028Z,83.21
2018-11-02T01:49:58.028Z,82.64
2018-11-02T01:50:58.060Z,81.97
2018-11-02T01:51:58.050Z,81.97
2018-11-02T01:52:58.052Z,80.73
2018-11-02T01:53:58.047Z,79.88
2018-11-02T01:54:58.031Z,79.11
2018-11-02T01:55:58.049Z,78.16
2018-11-02T01:56:58.032Z,77.78
2018-11-02T01:57:58.037Z,77.40
2018-11-02T01:58:58.088Z,77.20
2018-11-02T01:59:58.042Z,77.11
2018-11-02T02:00:58.039Z,77.78
2018-11-02T02:01:58.049Z,77.87
2018-11-02T02:02:58.044Z,78.44
2018-11-02T02:03:58.048Z,78.54
2018-11-02T02:04:58.060Z,79.49
2018-11-02T02:05:58.050Z,81.21
2018-11-02T02:06:58.049Z,81.59
2018-11-02T02:07:58.051Z,81.68
2018-11-02T02:08:58.057Z,82.54
2018-11-02T02:09:58.062Z,83.59
2018-11-02T02:10:58.057Z,84.36
2018-11-02T02:11:58.037Z,84.26
2018-11-02T02:12:58.050Z,85.25
2018-11-02T02:13:58.040Z,85.69
2018-11-02T02:14:58.044Z,86.65
2018-11-02T02:15:58.043Z,88.64
2018-11-02T02:16:58.044Z,89.98
2018-11-02T02:17:58.042Z,91.13
2018-11-02T02:18:58.044Z,90.55
2018-11-02T02:19:58.046Z,91.55
2018-11-02T02:20:58.045Z,91.46
2018-11-02T02:21:58.063Z,91.83
2018-11-02T02:22:58.065Z,91.41
2018-11-02T02:23:58.064Z,91.41
2018-11-02T02:24:58.058Z,92.36
2018-11-02T02:25:58.061Z,92.84
2018-11-02T02:26:58.049Z,93.12
2018-11-02T02:27:58.064Z,93.51
2018-11-02T02:28:58.064Z,93.88
2018-11-02T02:29:58.042Z,94.56
2018-11-02T02:30:58.060Z,95.79
2018-11-02T02:31:58.053Z,96.56
2018-11-02T02:32:58.050Z,97.08
2018-11-02T02:33:58.076Z,97.32
2018-11-02T02:34:58.052Z,96.36
2018-11-02T02:35:58.053Z,97.32
2018-11-02T02:36:58.060Z,96.84
2018-11-02T02:37:58.069Z,98.27
2018-11-02T02:38:58.064Z,98.56
2018-11-02T02:39:58.076Z,99.22
2018-11-02T02:40:58.082Z,98.46
2018-11-02T02:41:58.064Z,99.60
2018-11-02T02:42:58.052Z,99.99
2018-11-02T02:43:58.075Z,99.99
2018-11-02T02:44:58.070Z,99.99
2018-11-02T02:45:58.051Z,99.99
2018-11-02T02:46:58.054Z,99.99
2018-11-02T02:47:58.066Z,99.99
2018-11-02T02:48:58.054Z,99.99
2018-11-02T02:49:58.054Z,99.99
2018-11-02T02:50:58.050Z,99.99
2018-11-02T02:51:58.093Z,99.99
2018-11-02T02:52:58.073Z,99.99
2018-11-02T02:53:58.076Z,99.99
2018-11-02T02:54:58.053Z,99.99
2018-11-02T02:55:58.084Z,99.99
2018-11-02T02:56:58.062Z,99.99
2018-11-02T02:57:58.063Z,99.99
2018-11-02T02:58:58.071Z,99.99
2018-11-02T02:59:58.071Z,99.99
2018-11-02T03:00:58.063Z,99.99
2018-11-02T03:01:58.077Z,99.99
2018-11-02T03:02:58.099Z,99.99
2018-11-02T03:03:58.073Z,99.99
2018-11-02T03:04:58.066Z,99.99
2018-11-02T03:05:58.076Z,99.99
2018-11-02T03:06:58.063Z,99.99
2018-11-02T03:07:58.080Z,99.99
2018-11-02T03:08:58.099Z,99.99
2018-11-02T03:09:58.089Z,99.99
2018-11-02T03:10:58.250Z,99.99
2018-11-02T03:11:58.065Z,99.99
2018-11-02T03:12:58.069Z,99.99
2018-11-02T03:13:58.114Z,99.99
2018-11-02T03:14:58.074Z,99.99
2018-11-02T03:15:58.072Z,99.99
2018-11-02T03:16:58.075Z,99.99
2018-11-02T03:17:58.075Z,99.99
2018-11-02T03:18:58.070Z,99.99
2018-11-02T03:19:58.062Z,99.99
2018-11-02T03:20:58.064Z,99.99
2018-11-02T03:21:58.085Z,99.99
2018-11-02T03:22:58.092Z,99.99
2018-11-02T03:23:58.087Z,99.99
2018-11-02T03:24:58.086Z,99.99
2018-11-02T03:25:58.084Z,99.99
2018-11-02T03:26:58.083Z,99.99
2018-11-02T03:27:58.102Z,99.99
2018-11-02T03:28:58.096Z,99.99
2018-11-02T03:29:58.086Z,99.99
2018-11-02T03:30:58.082Z,99.99
2018-11-02T03:31:58.072Z,99.99
2018-11-02T03:32:58.081Z,99.99
2018-11-02T03:33:58.088Z,99.99
2018-11-02T03:34:58.073Z,99.99
2018-11-02T03:35:58.093Z,99.99
2018-11-02T03:36:58.071Z,99.99
2018-11-02T03:37:58.086Z,99.99
2018-11-02T03:38:58.082Z,99.99
2018-11-02T03:39:58.094Z,99.99
2018-11-02T03:40:58.082Z,99.99
2018-11-02T03:41:58.104Z,99.99
2018-11-02T03:42:58.084Z,99.99
2018-11-02T03:43:58.088Z,99.99
2018-11-02T03:44:58.078Z,99.99
2018-11-02T03:45:58.077Z,99.99
2018-11-02T03:46:58.077Z,99.99
2018-11-02T03:47:58.084Z,99.99
2018-11-02T03:48:58.077Z,99.99
2018-11-02T03:49:58.166Z,99.99
2018-11-02T03:50:58.083Z,99.99
2018-11-02T03:51:58.073Z,99.99
2018-11-02T03:52:58.107Z,99.99
2018-11-02T03:53:58.229Z,99.99
2018-11-02T03:54:58.114Z,99.99
2018-11-02T03:55:58.641Z,99.99
2018-11-02T03:56:58.235Z,99.99
2018-11-02T03:57:58.085Z,99.99
2018-11-02T03:58:58.082Z,99.99
2018-11-02T03:59:58.376Z,99.99
2018-11-02T04:00:58.086Z,99.99
2018-11-02T04:01:58.085Z,99.99
2018-11-02T04:02:58.123Z,99.99
2018-11-02T04:03:58.088Z,99.99
2018-11-02T04:04:58.086Z,99.99
2018-11-02T04:05:58.085Z,99.99
2018-11-02T04:06:58.101Z,99.99
2018-11-02T04:07:58.098Z,99.99
2018-11-02T04:08:58.109Z,99.99
2018-11-02T04:09:58.084Z,99.99
2018-11-02T04:10:58.089Z,99.99
2018-11-02T04:11:58.097Z,99.99
2018-11-02T04:12:58.109Z,99.99
2018-11-02T04:13:58.089Z,99.99
2018-11-02T04:14:58.098Z,99.99
2018-11-02T04:15:58.089Z,99.99
2018-11-02T04:16:58.089Z,99.99
2018-11-02T04:17:58.086Z,99.99
2018-11-02T04:18:58.097Z,99.99
2018-11-02T04:19:58.098Z,99.99
2018-11-02T04:20:58.103Z,99.99
2018-11-02T04:21:58.108Z,99.99
2018-11-02T04:22:58.107Z,99.99
2018-11-02T04:23:58.098Z,99.99
2018-11-02T04:24:58.128Z,99.99
2018-11-02T04:25:58.090Z,99.99
2018-11-02T04:26:58.095Z,99.99
2018-11-02T04:27:58.101Z,99.99
2018-11-02T04:28:58.091Z,99.99
2018-11-02T04:29:58.097Z,99.99
2018-11-02T04:30:58.136Z,99.99
2018-11-02T04:31:58.110Z,99.99
2018-11-02T04:32:58.103Z,99.99
2018-11-02T04:33:58.117Z,99.99
2018-11-02T04:34:58.113Z,99.99
2018-11-02T04:35:58.112Z,99.99
2018-11-02T04:36:58.119Z,99.99
2018-11-02T04:37:58.112Z,99.99
2018-11-02T04:38:58.119Z,99.99
2018-11-02T04:39:58.112Z,99.99
2018-11-02T04:40:58.115Z,99.99
2018-11-02T04:41:58.115Z,99.99
2018-11-02T04:42:58.101Z,99.99
2018-11-02T04:43:58.110Z,99.99
2018-11-02T04:44:58.112Z,99.99
2018-11-02T04:45:58.108Z,99.99
2018-11-02T04:46:58.103Z,99.99
2018-11-02T04:47:58.102Z,99.99
2018-11-02T04:48:58.108Z,96.56
2018-11-02T04:49:58.102Z,95.41
2018-11-02T04:50:58.126Z,94.93
2018-11-02T04:51:58.108Z,94.56
2018-11-02T04:52:58.098Z,93.22
2018-11-02T04:53:58.105Z,91.41
2018-11-02T04:54:58.141Z,90.26
2018-11-02T04:55:58.113Z,88.64
2018-11-02T04:56:58.136Z,88.07
2018-11-02T04:57:58.121Z,87.79
2018-11-02T04:58:58.112Z,87.40
2018-11-02T04:59:58.112Z,86.93
2018-11-02T05:00:58.112Z,86.74
2018-11-02T05:01:58.111Z,86.55
2018-11-02T05:02:58.122Z,85.88
2018-11-02T05:03:58.114Z,85.31
2018-11-02T05:04:58.109Z,85.21
2018-11-02T05:05:58.128Z,85.41
2018-11-02T05:06:58.121Z,85.69
2018-11-02T05:07:58.121Z,85.78
2018-11-02T05:08:58.120Z,84.26
2018-11-02T05:09:58.215Z,82.73
2018-11-02T05:10:58.150Z,82.26
2018-11-02T05:11:58.115Z,82.64
2018-11-02T05:12:58.118Z,81.97
2018-11-02T05:13:58.130Z,81.97
2018-11-02T05:14:58.128Z,80.73
2018-11-02T05:15:58.117Z,77.87
2018-11-02T05:16:58.131Z,78.73
2018-11-02T05:17:58.140Z,78.06
2018-11-02T05:18:58.121Z,76.35
2018-11-02T05:19:58.136Z,74.73
2018-11-02T05:20:58.166Z,73.58
2018-11-02T05:21:58.118Z,72.53
2018-11-02T05:22:58.113Z,71.48
2018-11-02T05:23:58.125Z,70.53
2018-11-02T05:24:58.117Z,70.15
2018-11-02T05:25:58.117Z,68.82
2018-11-02T05:26:58.122Z,67.96
2018-11-02T05:27:58.122Z,67.20
2018-11-02T05:28:58.144Z,66.44
2018-11-02T05:29:58.145Z,65.20
2018-11-02T05:30:58.129Z,65.20
2018-11-02T05:31:58.127Z,64.05
2018-11-02T05:32:58.123Z,62.91
2018-11-02T05:33:58.122Z,63.00
2018-11-02T05:34:58.124Z,62.34
2018-11-02T05:35:58.146Z,62.02
2018-11-02T05:36:58.132Z,62.21
2018-11-02T05:37:58.137Z,62.05
2018-11-02T05:38:58.130Z,62.52
2018-11-02T05:39:58.148Z,62.91
2018-11-02T05:40:58.123Z,63.67
2018-11-02T05:41:58.131Z,63.54
2018-11-02T05:42:58.141Z,63.86
2018-11-02T05:43:58.156Z,63.76
2018-11-02T05:44:58.130Z,63.76
2018-11-02T05:45:58.138Z,63.35
2018-11-02T05:46:58.137Z,63.45
2018-11-02T05:47:58.151Z,63.83
2018-11-02T05:48:58.141Z,63.67
2018-11-02T05:49:58.155Z,63.64
2018-11-02T05:50:58.153Z,63.48
2018-11-02T05:51:58.173Z,63.73
2018-11-02T05:52:58.124Z,62.59
2018-11-02T05:53:58.170Z,62.59
2018-11-02T05:54:58.138Z,61.93
2018-11-02T05:55:58.130Z,61.35
2018-11-02T05:56:58.144Z,60.11
2018-11-02T05:57:58.129Z,59.92
2018-11-02T05:58:58.176Z,59.06
2018-11-02T05:59:58.138Z,58.11
2018-11-02T06:00:58.149Z,57.64
2018-11-02T06:01:58.147Z,57.64
2018-11-02T06:02:58.179Z,56.59
2018-11-02T06:03:58.153Z,55.73
2018-11-02T06:04:58.141Z,55.92
2018-11-02T06:05:58.147Z,56.87
2018-11-02T06:06:58.168Z,56.87
2018-11-02T06:07:58.199Z,56.59
2018-11-02T06:08:58.136Z,55.73
2018-11-02T06:09:58.133Z,55.54
2018-11-02T06:10:58.141Z,54.88
2018-11-02T06:11:58.142Z,54.88
2018-11-02T06:12:58.136Z,54.59
2018-11-02T06:13:58.159Z,54.78
2018-11-02T06:14:58.140Z,54.49
2018-11-02T06:15:58.169Z,54.88
2018-11-02T06:16:58.211Z,54.97
2018-11-02T06:17:58.160Z,54.68
2018-11-02T06:18:58.152Z,54.30
2018-11-02T06:19:58.158Z,54.39
2018-11-02T06:20:58.150Z,54.49
2018-11-02T06:21:58.136Z,54.49
2018-11-02T06:22:58.155Z,54.49
2018-11-02T06:23:58.144Z,54.02
2018-11-02T06:24:58.170Z,53.54
2018-11-02T06:25:58.137Z,53.64
2018-11-02T06:26:58.149Z,53.06
2018-11-02T06:27:58.149Z,53.16
2018-11-02T06:28:58.158Z,53.16
2018-11-02T06:29:58.155Z,52.97
2018-11-02T06:30:58.151Z,52.68
2018-11-02T06:31:58.164Z,52.78
2018-11-02T06:32:58.149Z,52.49
2018-11-02T06:33:58.156Z,52.78
2018-11-02T06:34:58.173Z,52.78
2018-11-02T06:35:58.160Z,53.16
2018-11-02T06:36:58.148Z,53.25
2018-11-02T06:37:58.163Z,53.06
2018-11-02T06:38:58.300Z,53.16
2018-11-02T06:39:58.143Z,53.25
2018-11-02T06:40:58.146Z,53.44
2018-11-02T06:41:58.146Z,52.97
2018-11-02T06:42:58.148Z,53.06
2018-11-02T06:43:58.162Z,52.78
2018-11-02T06:44:58.318Z,52.40
2018-11-02T06:45:58.150Z,52.68
2018-11-02T06:46:58.149Z,52.20
2018-11-02T06:47:58.160Z,52.20
2018-11-02T06:48:58.162Z,52.20
2018-11-02T06:49:58.165Z,52.20
2018-11-02T06:50:58.231Z,52.59
2018-11-02T06:51:58.162Z,52.49
2018-11-02T06:52:58.173Z,52.59
2018-11-02T06:53:58.143Z,51.73
2018-11-02T06:54:58.142Z,51.54
2018-11-02T06:55:58.172Z,52.01
2018-11-02T06:56:58.149Z,52.20
2018-11-02T06:57:58.179Z,52.30
2018-11-02T06:58:58.214Z,52.01
2018-11-02T06:59:58.416Z,52.40
2018-11-02T07:00:58.155Z,52.01
2018-11-02T07:01:58.151Z,52.20
2018-11-02T07:02:58.170Z,51.82
2018-11-02T07:03:58.160Z,51.64
2018-11-02T07:04:58.157Z,51.25
2018-11-02T07:05:58.160Z,50.78
2018-11-02T07:06:58.179Z,51.16
2018-11-02T07:07:58.320Z,50.97
2018-11-02T07:08:58.182Z,50.87
2018-11-02T07:09:58.157Z,50.97
2018-11-02T07:10:58.175Z,50.87
2018-11-02T07:11:58.158Z,51.09
2018-11-02T07:12:58.187Z,51.47
2018-11-02T07:13:58.182Z,51.45
2018-11-02T07:14:58.153Z,51.73
2018-11-02T07:15:58.151Z,52.68
2018-11-02T07:16:58.171Z,52.42
2018-11-02T07:17:58.166Z,52.78
2018-11-02T07:18:58.164Z,53.16
2018-11-02T07:19:58.188Z,53.35
2018-11-02T07:20:58.157Z,53.44
2018-11-02T07:21:58.171Z,53.83
2018-11-02T07:22:58.155Z,53.44
2018-11-02T07:23:58.203Z,52.49
2018-11-02T07:24:58.221Z,52.40
2018-11-02T07:25:58.183Z,52.68
2018-11-02T07:26:58.164Z,52.68
2018-11-02T07:27:58.163Z,52.49
2018-11-02T07:29:00.677Z,52.20
2018-11-02T07:29:58.161Z,52.20
2018-11-02T07:30:58.161Z,52.20
2018-11-02T07:31:58.163Z,52.23
2018-11-02T07:32:58.180Z,52.49
2018-11-02T07:33:58.183Z,52.40
2018-11-02T07:34:58.186Z,52.33
2018-11-02T07:35:58.175Z,52.33
2018-11-02T07:36:58.158Z,52.33
2018-11-02T07:37:58.176Z,52.52
2018-11-02T07:38:58.184Z,52.52
2018-11-02T07:39:58.167Z,53.09
2018-11-02T07:40:58.195Z,53.16
2018-11-02T07:41:58.180Z,53.76
2018-11-02T07:42:58.201Z,53.66
2018-11-02T07:43:58.181Z,53.95
2018-11-02T07:44:58.177Z,54.02
2018-11-02T07:45:58.193Z,54.43
2018-11-02T07:46:58.171Z,55.26
2018-11-02T07:47:58.201Z,55.28
2018-11-02T07:48:58.167Z,55.73
2018-11-02T07:49:58.194Z,56.02
2018-11-02T07:50:58.175Z,55.66
2018-11-02T07:51:58.183Z,55.95
2018-11-02T07:52:58.187Z,56.43
2018-11-02T07:53:58.193Z,56.62
2018-11-02T07:54:58.173Z,57.28
2018-11-02T07:55:58.164Z,57.95
2018-11-02T07:56:58.178Z,58.43
2018-11-02T07:57:58.173Z,57.57
2018-11-02T07:58:58.180Z,57.86
2018-11-02T07:59:58.182Z,58.04
2018-11-02T08:00:58.169Z,58.43
2018-11-02T08:01:58.322Z,60.05
2018-11-02T08:02:58.180Z,60.72
2018-11-02T08:03:58.200Z,61.10
2018-11-02T08:04:58.180Z,62.81
2018-11-02T08:05:58.247Z,63.67
2018-11-02T08:06:58.223Z,64.53
2018-11-02T08:07:58.182Z,65.10
2018-11-02T08:08:58.184Z,65.00
2018-11-02T08:09:58.175Z,65.96
2018-11-02T08:10:58.186Z,65.00
2018-11-02T08:11:58.192Z,65.20
2018-11-02T08:12:58.194Z,64.34
2018-11-02T08:13:58.193Z,64.24
2018-11-02T08:14:58.198Z,63.76
2018-11-02T08:15:58.249Z,63.96
2018-11-02T08:16:58.209Z,64.53
2018-11-02T08:17:58.180Z,63.39
2018-11-02T08:18:58.259Z,63.10
2018-11-02T08:19:58.179Z,63.67
2018-11-02T08:20:58.199Z,64.05
2018-11-02T08:21:58.180Z,65.58
2018-11-02T08:22:58.184Z,65.67
2018-11-02T08:23:58.342Z,66.63
2018-11-02T08:24:58.189Z,67.23
2018-11-02T08:25:58.196Z,69.20
2018-11-02T08:26:58.183Z,70.25
2018-11-02T08:27:58.221Z,69.77
2018-11-02T08:28:58.188Z,70.53
2018-11-02T08:29:58.200Z,72.96
2018-11-02T08:30:58.203Z,73.43
2018-11-02T08:31:58.255Z,74.67
2018-11-02T08:32:58.210Z,75.34
2018-11-02T08:33:58.267Z,76.57
2018-11-02T08:34:58.210Z,80.20
2018-11-02T08:35:58.197Z,82.30
2018-11-02T08:36:58.238Z,82.20
2018-11-02T08:37:58.204Z,82.78
2018-11-02T08:38:58.204Z,82.97
2018-11-02T08:39:58.206Z,83.73
2018-11-02T08:41:00.216Z,85.06
2018-11-02T08:41:58.221Z,87.93
2018-11-02T08:42:58.200Z,88.78
2018-11-02T08:43:58.230Z,88.78
2018-11-02T08:44:58.228Z,87.16
2018-11-02T08:45:58.211Z,86.30
2018-11-02T08:46:58.210Z,87.83
2018-11-02T08:47:58.220Z,89.83
2018-11-02T08:48:58.233Z,91.36
2018-11-02T08:49:58.210Z,90.69
2018-11-02T08:50:58.213Z,90.79
2018-11-02T08:51:58.236Z,91.55
2018-11-02T08:52:58.220Z,93.46
2018-11-02T08:53:58.232Z,93.93
2018-11-02T08:54:58.217Z,95.37
2018-11-02T08:55:58.201Z,96.75
2018-11-02T08:56:58.199Z,97.80
2018-11-02T08:57:58.364Z,99.99
2018-11-02T08:58:58.299Z,99.99
2018-11-02T08:59:58.247Z,99.99
2018-11-02T09:00:58.210Z,99.99
2018-11-02T09:01:58.240Z,99.99
2018-11-02T09:02:58.230Z,99.99
2018-11-02T09:03:58.210Z,99.99
2018-11-02T09:04:58.251Z,99.99
2018-11-02T09:05:58.252Z,99.99
2018-11-02T09:06:58.230Z,99.99
2018-11-02T09:07:58.263Z,99.99
2018-11-02T09:08:58.227Z,99.99
2018-11-02T09:09:58.228Z,99.99
2018-11-02T09:10:58.269Z,99.99
2018-11-02T09:11:58.286Z,99.99
2018-11-02T09:12:58.269Z,99.99
2018-11-02T09:13:58.241Z,99.99
2018-11-02T09:14:58.224Z,99.99
2018-11-02T09:15:58.228Z,99.99
2018-11-02T09:16:58.233Z,99.99
2018-11-02T09:17:58.223Z,99.99
2018-11-02T09:18:58.270Z,99.99
2018-11-02T09:19:58.262Z,99.99
2018-11-02T09:20:58.255Z,99.99
2018-11-02T09:21:58.270Z,99.99
2018-11-02T09:22:58.233Z,99.99
2018-11-02T09:23:58.260Z,99.99
2018-11-02T09:24:58.231Z,99.99
2018-11-02T09:25:58.243Z,99.99
2018-11-02T09:26:58.258Z,99.99
2018-11-02T09:27:58.292Z,99.95
2018-11-02T09:28:58.239Z,99.99
2018-11-02T09:29:58.245Z,99.99
2018-11-02T09:30:58.429Z,99.99
2018-11-02T09:31:58.431Z,99.46
2018-11-02T09:32:58.342Z,99.99
2018-11-02T09:33:58.256Z,99.99
2018-11-02T09:34:58.324Z,99.99
2018-11-02T09:35:59.246Z,99.99
2018-11-02T09:36:58.332Z,99.99
2018-11-02T09:37:58.355Z,99.99
2018-11-02T09:38:58.271Z,99.99
2018-11-02T09:39:58.254Z,99.99
2018-11-02T09:40:58.259Z,99.99
2018-11-02T09:41:58.261Z,99.99
2018-11-02T09:42:58.267Z,99.99
2018-11-02T09:43:58.281Z,99.99
2018-11-02T09:44:58.277Z,99.99
2018-11-02T09:45:58.270Z,99.99
2018-11-02T09:46:58.278Z,99.99
2018-11-02T09:47:58.293Z,99.99
2018-11-02T09:48:58.314Z,99.99
2018-11-02T09:49:58.261Z,99.99
2018-11-02T09:50:58.263Z,99.99
2018-11-02T09:51:58.311Z,99.99
2018-11-02T09:52:58.269Z,99.99
2018-11-02T09:53:58.280Z,99.99
2018-11-02T09:54:58.265Z,99.99
2018-11-02T09:55:58.262Z,99.99
2018-11-02T09:56:58.260Z,99.99
2018-11-02T09:57:58.328Z,99.99
2018-11-02T09:58:58.297Z,99.99
2018-11-02T09:59:58.280Z,99.99
2018-11-02T10:00:58.303Z,99.99
2018-11-02T10:01:58.297Z,99.99
2018-11-02T10:02:58.296Z,99.99
2018-11-02T10:03:58.278Z,99.99
2018-11-02T10:04:58.311Z,99.99
2018-11-02T10:05:58.330Z,99.99
2018-11-02T10:06:58.309Z,99.99
2018-11-02T10:07:58.320Z,99.99
2018-11-02T10:08:58.347Z,99.99
2018-11-02T10:09:58.315Z,99.99
2018-11-02T10:10:58.285Z,99.99
2018-11-02T10:11:58.295Z,99.99
2018-11-02T10:12:58.294Z,99.99
2018-11-02T10:13:58.292Z,99.99
2018-11-02T10:14:58.300Z,99.99
2018-11-02T10:15:58.297Z,99.99
2018-11-02T10:16:58.299Z,99.99
2018-11-02T10:17:58.306Z,99.99
2018-11-02T10:18:58.335Z,99.99
2018-11-02T10:19:58.328Z,99.99
2018-11-02T10:20:58.321Z,99.99
2018-11-02T10:21:58.313Z,99.99
2018-11-02T10:22:58.314Z,99.99
2018-11-02T10:23:58.434Z,99.99
2018-11-02T10:24:58.317Z,99.99
2018-11-02T10:25:58.328Z,99.99
2018-11-02T10:26:58.341Z,99.99
2018-11-02T10:27:58.339Z,99.99
2018-11-02T10:28:58.351Z,99.99
2018-11-02T10:29:58.333Z,99.99
2018-11-02T10:30:58.311Z,99.99
2018-11-02T10:31:58.322Z,99.99
2018-11-02T10:32:58.319Z,99.99
2018-11-02T10:33:58.324Z,99.99
2018-11-02T10:34:58.372Z,99.99
2018-11-02T10:35:58.424Z,99.99
2018-11-02T10:36:58.341Z,99.99
2018-11-02T10:37:58.317Z,99.99
2018-11-02T10:38:58.334Z,99.99
2018-11-02T10:39:58.339Z,99.99
2018-11-02T10:40:58.328Z,99.99
2018-11-02T10:41:58.326Z,99.99
2018-11-02T10:42:58.342Z,99.99
2018-11-02T10:43:58.337Z,99.99
2018-11-02T10:44:58.390Z,99.99
2018-11-02T10:45:58.368Z,99.99
2018-11-02T10:46:58.350Z,99.99
2018-11-02T10:47:58.325Z,99.99
2018-11-02T10:48:58.329Z,99.99
2018-11-02T10:49:58.336Z,99.99
2018-11-02T10:50:58.350Z,99.99
2018-11-02T10:51:58.342Z,99.99
2018-11-02T10:52:58.339Z,99.99
2018-11-02T10:53:58.367Z,99.99
2018-11-02T10:54:58.347Z,99.99
2018-11-02T10:55:58.349Z,99.99
2018-11-02T10:56:58.348Z,99.99
2018-11-02T10:57:58.334Z,99.99
2018-11-02T10:58:58.364Z,99.99
2018-11-02T10:59:58.347Z,99.99
2018-11-02T11:00:58.441Z,99.99
2018-11-02T11:01:58.356Z,99.99
2018-11-02T11:02:58.366Z,99.99
2018-11-02T11:03:58.349Z,99.99
2018-11-02T11:04:58.352Z,99.99
2018-11-02T11:05:59.184Z,99.99
2018-11-02T11:06:58.351Z,99.99
2018-11-02T11:07:58.374Z,99.99
2018-11-02T11:08:58.375Z,99.99
2018-11-02T11:09:58.357Z,99.99
2018-11-02T11:10:58.345Z,99.99
2018-11-02T11:11:58.519Z,99.99
2018-11-02T11:12:58.634Z,99.99
2018-11-02T11:13:58.350Z,99.99
2018-11-02T11:14:58.392Z,99.99
2018-11-02T11:15:58.368Z,99.99
2018-11-02T11:16:58.380Z,99.99
2018-11-02T11:17:58.397Z,99.99
2018-11-02T11:18:58.399Z,99.99
2018-11-02T11:19:58.392Z,99.99
2018-11-02T11:20:58.412Z,99.99
2018-11-02T11:21:58.396Z,99.99
2018-11-02T11:22:58.404Z,99.99
2018-11-02T11:23:58.363Z,99.99
2018-11-02T11:24:58.379Z,99.99
2018-11-02T11:25:58.372Z,99.99
2018-11-02T11:26:58.395Z,99.99
2018-11-02T11:27:58.373Z,99.99
2018-11-02T11:28:58.433Z,99.99
2018-11-02T11:29:58.379Z,99.99
2018-11-02T11:30:58.373Z,99.99
2018-11-02T11:31:58.397Z,99.99
2018-11-02T11:32:58.449Z,99.99
2018-11-02T11:33:58.410Z,99.99
2018-11-02T11:34:58.381Z,99.99
2018-11-02T11:35:58.376Z,99.99
2018-11-02T11:36:58.384Z,99.99
2018-11-02T11:37:58.644Z,99.99
2018-11-02T11:38:58.387Z,99.99
2018-11-02T11:39:58.401Z,99.99
2018-11-02T11:40:58.377Z,99.99
2018-11-02T11:41:58.410Z,99.99
2018-11-02T11:42:58.388Z,99.99
2018-11-02T11:43:58.400Z,99.99
2018-11-02T11:44:58.388Z,99.99
2018-11-02T11:45:58.404Z,99.99
2018-11-02T11:46:58.382Z,99.99
2018-11-02T11:47:58.401Z,99.99
2018-11-02T11:48:58.552Z,99.99
2018-11-02T11:49:58.385Z,99.99
2018-11-02T11:50:58.401Z,99.99
2018-11-02T11:51:58.395Z,99.99
2018-11-02T11:52:58.410Z,99.99
2018-11-02T11:53:58.430Z,99.99
2018-11-02T11:54:58.413Z,99.99
2018-11-02T11:55:58.401Z,99.99
2018-11-02T11:56:58.413Z,99.99
2018-11-02T11:57:58.407Z,99.99
2018-11-02T11:58:58.397Z,99.99
2018-11-02T11:59:58.425Z,99.99
2018-11-02T12:00:58.428Z,99.99
2018-11-02T12:01:58.437Z,99.99
2018-11-02T12:02:58.399Z,99.99
2018-11-02T12:04:00.279Z,99.99
2018-11-02T12:04:58.534Z,99.99
2018-11-02T12:05:58.416Z,99.99
2018-11-02T12:06:58.477Z,99.99
2018-11-02T12:07:58.423Z,99.99
2018-11-02T12:08:58.410Z,99.99
2018-11-02T12:09:58.496Z,99.99
2018-11-02T12:10:58.440Z,99.99
2018-11-02T12:11:58.424Z,99.99
2018-11-02T12:12:58.423Z,99.99
2018-11-02T12:13:58.433Z,99.99
2018-11-02T12:14:58.421Z,99.99
2018-11-02T12:15:58.472Z,99.99
2018-11-02T12:16:58.454Z,99.99
2018-11-02T12:17:58.446Z,99.99
2018-11-02T12:18:58.425Z,99.99
2018-11-02T12:19:58.427Z,99.99
2018-11-02T12:20:58.453Z,99.99
2018-11-02T12:21:58.479Z,99.99
2018-11-02T12:22:58.447Z,99.99
2018-11-02T12:23:58.449Z,99.99
2018-11-02T12:24:58.424Z,99.99
2018-11-02T12:25:58.438Z,99.99
2018-11-02T12:26:58.431Z,99.99
2018-11-02T12:27:58.443Z,99.99
2018-11-02T12:28:58.595Z,99.99
2018-11-02T12:29:58.446Z,99.99
2018-11-02T12:30:58.460Z,99.99
2018-11-02T12:31:58.454Z,99.99
2018-11-02T12:32:58.444Z,99.99
2018-11-02T12:33:58.450Z,99.99
2018-11-02T12:34:58.464Z,99.99
2018-11-02T12:35:58.468Z,99.99
2018-11-02T12:36:58.473Z,99.99
2018-11-02T12:37:58.437Z,99.99
2018-11-02T12:38:58.447Z,99.99
2018-11-02T12:40:00.290Z,99.99
2018-11-02T12:40:58.468Z,99.99
2018-11-02T12:41:58.457Z,99.99
2018-11-02T12:42:58.454Z,99.99
2018-11-02T12:43:58.501Z,99.99
2018-11-02T12:44:58.443Z,99.99
2018-11-02T12:45:58.456Z,99.99
2018-11-02T12:46:58.461Z,99.99
2018-11-02T12:47:58.491Z,99.99
2018-11-02T12:48:58.771Z,99.99
2018-11-02T12:49:58.510Z,99.99
2018-11-02T12:50:58.466Z,99.99
2018-11-02T12:51:58.469Z,99.99
2018-11-02T12:52:58.477Z,99.99